ARCT2: Red River, ARthur City

                                SHEF ID:       ARCT2     Red River at Arthur City, TX
STATION TYPE: Stream Gauge
Regulating: Stage = 27.00, Flow = 84609

PRECIP ELEVATION STAGE STAGE(2) RIV-FLOW BAT-LOAD
in ft ft ft cfs volt
Ccp-Rev Ccp-Rev Ccp-Rev Ccp-Rev Ccp-Rev Ccp-Rev
(America/Chicago)
03/15 00:00 0.00 ---- 6.83 ---- 4779 12.57
03/15 01:00 0.00 ---- 6.76 ---- 4660 12.57
03/15 02:00 0.00 ---- 6.69 ---- 4542 12.49
03/15 03:00 0.00 ---- 6.63 ---- 4442 12.49
03/15 04:00 0.00 ---- 6.53 ---- 4278 12.49
03/15 05:00 0.00 ---- 6.47 ---- 4181 12.41
03/15 06:00 0.00 ---- 6.43 ---- 4117 12.41
03/15 07:00 0.00 ---- 6.38 ---- 4035 12.41
03/15 08:00 0.00 ---- 6.31 ---- 3919 12.41
03/15 09:00 0.00 ---- 6.27 ---- 3854 12.49
03/15 10:00 0.00 ---- 6.21 ---- 3757 12.81
03/15 11:00 0.00 ---- 6.18 ---- 3709 13.44
03/15 12:00 0.00 ---- 6.13 ---- 3629 14.16
03/15 13:00 0.00 ---- 6.09 ---- 3567 13.68
03/15 14:00 0.00 ---- 6.03 ---- 3473 13.53
03/15 15:00 0.00 ---- 5.78 ---- 3097 13.53
03/15 16:00 0.00 ---- 5.70 ---- 2981 13.44
03/15 17:00 0.00 ---- 5.63 ---- 2881 13.68
03/15 18:00 0.00 ---- 5.65 ---- 2909 13.60
03/15 19:00 0.00 ---- 5.57 ---- 2801 13.44
03/15 20:00 0.00 ---- 5.51 ---- 2721 13.05
03/15 21:00 0.00 ---- 5.53 ---- 2748 12.65
03/15 22:00 0.00 ---- 5.54 ---- 2761 12.57
03/15 23:00 0.00 ---- 5.39 ---- 2566 12.57
Data processed at Mon 16Mar2026 04:30 GMT

NOTICE: If you are parsing this page

Please convert to using our Data API. Starting early 2026 we will be migrating to: https://water.usace.army.mil with modern pages rendered in JavaScript. When this migration completes you will no longer be able to scrape this page! CWMSDataAPI (CDA)

Timeseries IDs (TSIDs)

TSIDs used from left to right in the data table
ARTH.Precip-Inc.Total.1Hour.1Hour.Ccp-Rev
ARTH.Stage.Inst.1Hour.0.Ccp-Rev
ARTH.Stage-Alt.Inst.1Hour.0.Ccp-Rev
ARTH.Flow.Inst.1Hour.0.Ccp-Rev
ARTH.Volt-Battery Load.Inst.1Hour.0.Ccp-Rev

                            

All information presented herein is the property of the government of the United States of America and may be revised or deleted at any time without prior notice. Dissemination of this information without the expressed written consent of the Public Affairs Office, Tulsa District U.S. Army Corps of Engineers is strictly prohibited. These data are gathered electronically and, as presented, have NOT undergone any form of quality control. These data are NOT guaranteed to be valid or correct.